sensor_id;sensor_type;location;lat;lon;timestamp;P1;durP1;ratioP1;P2;durP2;ratioP2
76591;SDS011;65481;47.600;19.682;2024-01-30T00:00:04;34.33;;;14.70;;
76591;SDS011;65481;47.600;19.682;2024-01-30T00:05:05;36.03;;;15.52;;
76591;SDS011;65481;47.600;19.682;2024-01-30T00:10:06;32.22;;;13.48;;
76591;SDS011;65481;47.600;19.682;2024-01-30T00:15:07;32.75;;;15.40;;
76591;SDS011;65481;47.600;19.682;2024-01-30T00:20:09;39.92;;;14.85;;
76591;SDS011;65481;47.600;19.682;2024-01-30T00:25:11;35.47;;;13.85;;
76591;SDS011;65481;47.600;19.682;2024-01-30T00:30:11;32.47;;;14.43;;
76591;SDS011;65481;47.600;19.682;2024-01-30T00:35:12;32.78;;;12.90;;
76591;SDS011;65481;47.600;19.682;2024-01-30T00:40:13;28.17;;;14.10;;
76591;SDS011;65481;47.600;19.682;2024-01-30T00:45:16;29.15;;;13.75;;
76591;SDS011;65481;47.600;19.682;2024-01-30T00:50:17;27.25;;;13.15;;
76591;SDS011;65481;47.600;19.682;2024-01-30T00:55:17;28.75;;;12.75;;
76591;SDS011;65481;47.600;19.682;2024-01-30T01:00:18;30.75;;;12.63;;
76591;SDS011;65481;47.600;19.682;2024-01-30T01:05:21;25.63;;;12.05;;
76591;SDS011;65481;47.600;19.682;2024-01-30T01:10:21;35.83;;;14.43;;
76591;SDS011;65481;47.600;19.682;2024-01-30T01:15:22;29.73;;;14.38;;
76591;SDS011;65481;47.600;19.682;2024-01-30T01:20:23;34.30;;;13.65;;
76591;SDS011;65481;47.600;19.682;2024-01-30T01:25:23;34.22;;;14.68;;
76591;SDS011;65481;47.600;19.682;2024-01-30T01:30:24;38.05;;;15.48;;
76591;SDS011;65481;47.600;19.682;2024-01-30T01:35:25;30.88;;;13.43;;
76591;SDS011;65481;47.600;19.682;2024-01-30T01:40:27;34.20;;;13.38;;
76591;SDS011;65481;47.600;19.682;2024-01-30T01:45:27;28.23;;;13.30;;
76591;SDS011;65481;47.600;19.682;2024-01-30T01:50:28;27.88;;;12.57;;
76591;SDS011;65481;47.600;19.682;2024-01-30T01:55:29;30.13;;;11.57;;
76591;SDS011;65481;47.600;19.682;2024-01-30T02:00:30;31.67;;;13.07;;
76591;SDS011;65481;47.600;19.682;2024-01-30T02:05:31;31.30;;;12.13;;
76591;SDS011;65481;47.600;19.682;2024-01-30T02:10:32;35.83;;;13.15;;
76591;SDS011;65481;47.600;19.682;2024-01-30T02:15:33;23.67;;;10.63;;
76591;SDS011;65481;47.600;19.682;2024-01-30T02:20:34;28.33;;;11.48;;
76591;SDS011;65481;47.600;19.682;2024-01-30T02:25:38;33.30;;;11.38;;
76591;SDS011;65481;47.600;19.682;2024-01-30T02:30:44;34.08;;;13.23;;
76591;SDS011;65481;47.600;19.682;2024-01-30T02:35:45;27.55;;;11.88;;
76591;SDS011;65481;47.600;19.682;2024-01-30T02:40:46;34.45;;;12.43;;
76591;SDS011;65481;47.600;19.682;2024-01-30T02:45:46;19.80;;;11.23;;
76591;SDS011;65481;47.600;19.682;2024-01-30T02:50:47;28.80;;;12.65;;
76591;SDS011;65481;47.600;19.682;2024-01-30T02:55:47;37.38;;;12.57;;
76591;SDS011;65481;47.600;19.682;2024-01-30T03:00:48;29.50;;;12.55;;
76591;SDS011;65481;47.600;19.682;2024-01-30T03:05:48;31.45;;;12.98;;
76591;SDS011;65481;47.600;19.682;2024-01-30T03:10:49;33.33;;;11.98;;
76591;SDS011;65481;47.600;19.682;2024-01-30T03:15:49;28.80;;;12.55;;
76591;SDS011;65481;47.600;19.682;2024-01-30T03:20:50;35.13;;;11.55;;
76591;SDS011;65481;47.600;19.682;2024-01-30T03:25:51;24.58;;;11.60;;
76591;SDS011;65481;47.600;19.682;2024-01-30T03:30:51;26.70;;;10.77;;
76591;SDS011;65481;47.600;19.682;2024-01-30T03:35:52;24.80;;;10.88;;
76591;SDS011;65481;47.600;19.682;2024-01-30T03:40:53;34.60;;;12.95;;
76591;SDS011;65481;47.600;19.682;2024-01-30T03:45:53;35.28;;;12.80;;
76591;SDS011;65481;47.600;19.682;2024-01-30T03:50:54;30.92;;;11.98;;
76591;SDS011;65481;47.600;19.682;2024-01-30T03:55:54;30.75;;;12.45;;
76591;SDS011;65481;47.600;19.682;2024-01-30T04:00:55;31.17;;;12.85;;
76591;SDS011;65481;47.600;19.682;2024-01-30T04:05:58;29.52;;;11.95;;
76591;SDS011;65481;47.600;19.682;2024-01-30T04:11:02;34.05;;;13.43;;
76591;SDS011;65481;47.600;19.682;2024-01-30T04:16:04;33.38;;;14.25;;
76591;SDS011;65481;47.600;19.682;2024-01-30T04:21:05;29.80;;;11.15;;
76591;SDS011;65481;47.600;19.682;2024-01-30T04:26:05;30.02;;;11.40;;
76591;SDS011;65481;47.600;19.682;2024-01-30T04:31:06;28.10;;;12.25;;
76591;SDS011;65481;47.600;19.682;2024-01-30T04:36:08;31.58;;;13.00;;
76591;SDS011;65481;47.600;19.682;2024-01-30T04:41:12;31.05;;;10.57;;
76591;SDS011;65481;47.600;19.682;2024-01-30T04:46:12;29.38;;;12.07;;
76591;SDS011;65481;47.600;19.682;2024-01-30T04:51:13;34.28;;;11.15;;
76591;SDS011;65481;47.600;19.682;2024-01-30T04:56:13;24.38;;;10.35;;
76591;SDS011;65481;47.600;19.682;2024-01-30T05:01:15;29.38;;;10.85;;
76591;SDS011;65481;47.600;19.682;2024-01-30T05:06:25;27.83;;;10.88;;
76591;SDS011;65481;47.600;19.682;2024-01-30T05:11:26;27.48;;;12.02;;
76591;SDS011;65481;47.600;19.682;2024-01-30T05:16:26;32.30;;;11.43;;
76591;SDS011;65481;47.600;19.682;2024-01-30T05:21:27;30.08;;;11.13;;
76591;SDS011;65481;47.600;19.682;2024-01-30T05:26:28;27.75;;;11.38;;
76591;SDS011;65481;47.600;19.682;2024-01-30T05:31:28;27.95;;;10.93;;
76591;SDS011;65481;47.600;19.682;2024-01-30T05:36:29;31.15;;;12.48;;
76591;SDS011;65481;47.600;19.682;2024-01-30T05:41:30;29.98;;;12.98;;
76591;SDS011;65481;47.600;19.682;2024-01-30T05:46:30;28.23;;;11.98;;
76591;SDS011;65481;47.600;19.682;2024-01-30T05:51:31;31.52;;;11.50;;
76591;SDS011;65481;47.600;19.682;2024-01-30T05:56:31;34.00;;;13.73;;
76591;SDS011;65481;47.600;19.682;2024-01-30T06:01:32;25.50;;;10.73;;
76591;SDS011;65481;47.600;19.682;2024-01-30T06:06:33;30.73;;;12.18;;
76591;SDS011;65481;47.600;19.682;2024-01-30T06:11:33;36.00;;;12.43;;
76591;SDS011;65481;47.600;19.682;2024-01-30T06:16:34;34.63;;;14.32;;
76591;SDS011;65481;47.600;19.682;2024-01-30T06:21:35;36.35;;;14.07;;
76591;SDS011;65481;47.600;19.682;2024-01-30T06:26:37;40.92;;;14.00;;
76591;SDS011;65481;47.600;19.682;2024-01-30T06:31:40;39.53;;;14.85;;
76591;SDS011;65481;47.600;19.682;2024-01-30T06:36:44;63.65;;;21.73;;
76591;SDS011;65481;47.600;19.682;2024-01-30T06:41:44;37.22;;;15.35;;
76591;SDS011;65481;47.600;19.682;2024-01-30T06:46:46;32.03;;;12.90;;
76591;SDS011;65481;47.600;19.682;2024-01-30T06:51:47;27.70;;;11.90;;
76591;SDS011;65481;47.600;19.682;2024-01-30T06:56:48;48.92;;;17.13;;
76591;SDS011;65481;47.600;19.682;2024-01-30T07:01:48;46.50;;;18.15;;
76591;SDS011;65481;47.600;19.682;2024-01-30T07:06:49;56.90;;;19.85;;
76591;SDS011;65481;47.600;19.682;2024-01-30T07:11:49;63.47;;;23.42;;
76591;SDS011;65481;47.600;19.682;2024-01-30T07:16:50;45.83;;;19.13;;
76591;SDS011;65481;47.600;19.682;2024-01-30T07:21:50;47.08;;;18.40;;
76591;SDS011;65481;47.600;19.682;2024-01-30T07:26:51;46.78;;;19.17;;
76591;SDS011;65481;47.600;19.682;2024-01-30T07:31:52;42.40;;;19.08;;
76591;SDS011;65481;47.600;19.682;2024-01-30T07:36:53;37.08;;;17.90;;
76591;SDS011;65481;47.600;19.682;2024-01-30T07:41:54;40.67;;;17.02;;
76591;SDS011;65481;47.600;19.682;2024-01-30T07:46:54;43.10;;;16.88;;
76591;SDS011;65481;47.600;19.682;2024-01-30T07:51:55;47.63;;;19.10;;
76591;SDS011;65481;47.600;19.682;2024-01-30T07:56:55;46.08;;;19.92;;
76591;SDS011;65481;47.600;19.682;2024-01-30T08:01:56;59.25;;;25.92;;
76591;SDS011;65481;47.600;19.682;2024-01-30T08:06:56;48.60;;;23.50;;
76591;SDS011;65481;47.600;19.682;2024-01-30T08:11:57;57.72;;;27.08;;
76591;SDS011;65481;47.600;19.682;2024-01-30T08:16:57;68.75;;;32.95;;
76591;SDS011;65481;47.600;19.682;2024-01-30T08:21:58;55.05;;;26.13;;
76591;SDS011;65481;47.600;19.682;2024-01-30T08:26:59;63.58;;;30.13;;
76591;SDS011;65481;47.600;19.682;2024-01-30T08:32:01;62.20;;;28.35;;
76591;SDS011;65481;47.600;19.682;2024-01-30T08:37:02;48.25;;;24.27;;
76591;SDS011;65481;47.600;19.682;2024-01-30T08:42:03;41.45;;;19.25;;
76591;SDS011;65481;47.600;19.682;2024-01-30T08:47:04;43.25;;;20.00;;
76591;SDS011;65481;47.600;19.682;2024-01-30T08:52:04;28.90;;;14.65;;
76591;SDS011;65481;47.600;19.682;2024-01-30T08:57:05;22.58;;;12.93;;
76591;SDS011;65481;47.600;19.682;2024-01-30T09:02:06;32.60;;;14.98;;
76591;SDS011;65481;47.600;19.682;2024-01-30T09:07:06;26.30;;;12.50;;
76591;SDS011;65481;47.600;19.682;2024-01-30T09:12:09;22.30;;;12.90;;
76591;SDS011;65481;47.600;19.682;2024-01-30T09:17:11;37.50;;;18.25;;
76591;SDS011;65481;47.600;19.682;2024-01-30T09:22:12;21.65;;;11.48;;
76591;SDS011;65481;47.600;19.682;2024-01-30T09:27:12;22.30;;;11.95;;
76591;SDS011;65481;47.600;19.682;2024-01-30T09:32:13;22.38;;;10.52;;
76591;SDS011;65481;47.600;19.682;2024-01-30T09:37:14;17.38;;;11.02;;
76591;SDS011;65481;47.600;19.682;2024-01-30T09:42:26;17.40;;;9.68;;
76591;SDS011;65481;47.600;19.682;2024-01-30T09:47:39;19.17;;;9.57;;
76591;SDS011;65481;47.600;19.682;2024-01-30T09:52:44;18.48;;;9.75;;
76591;SDS011;65481;47.600;19.682;2024-01-30T09:57:46;18.15;;;9.77;;
76591;SDS011;65481;47.600;19.682;2024-01-30T10:02:46;29.83;;;13.13;;
76591;SDS011;65481;47.600;19.682;2024-01-30T10:07:52;20.60;;;11.57;;
76591;SDS011;65481;47.600;19.682;2024-01-30T10:12:54;22.88;;;9.65;;
76591;SDS011;65481;47.600;19.682;2024-01-30T10:17:55;18.70;;;9.88;;
76591;SDS011;65481;47.600;19.682;2024-01-30T10:22:55;20.55;;;9.73;;
76591;SDS011;65481;47.600;19.682;2024-01-30T10:27:59;17.95;;;9.30;;
76591;SDS011;65481;47.600;19.682;2024-01-30T10:33:00;17.80;;;9.05;;
76591;SDS011;65481;47.600;19.682;2024-01-30T10:38:00;18.08;;;8.32;;
76591;SDS011;65481;47.600;19.682;2024-01-30T10:43:01;15.57;;;8.20;;
76591;SDS011;65481;47.600;19.682;2024-01-30T10:48:04;16.58;;;8.48;;
76591;SDS011;65481;47.600;19.682;2024-01-30T10:53:08;19.27;;;9.73;;
76591;SDS011;65481;47.600;19.682;2024-01-30T10:58:10;19.05;;;9.88;;
76591;SDS011;65481;47.600;19.682;2024-01-30T11:03:11;16.85;;;8.23;;
76591;SDS011;65481;47.600;19.682;2024-01-30T11:08:13;19.27;;;9.73;;
76591;SDS011;65481;47.600;19.682;2024-01-30T11:13:14;19.05;;;10.05;;
76591;SDS011;65481;47.600;19.682;2024-01-30T11:18:25;15.80;;;9.15;;
76591;SDS011;65481;47.600;19.682;2024-01-30T11:23:26;19.33;;;8.75;;
76591;SDS011;65481;47.600;19.682;2024-01-30T11:28:34;20.63;;;9.10;;
76591;SDS011;65481;47.600;19.682;2024-01-30T11:33:34;18.75;;;10.45;;
76591;SDS011;65481;47.600;19.682;2024-01-30T11:38:35;19.67;;;10.65;;
76591;SDS011;65481;47.600;19.682;2024-01-30T11:43:36;21.15;;;10.73;;
76591;SDS011;65481;47.600;19.682;2024-01-30T11:48:38;21.60;;;11.50;;
76591;SDS011;65481;47.600;19.682;2024-01-30T11:53:39;28.42;;;12.68;;
76591;SDS011;65481;47.600;19.682;2024-01-30T11:58:42;28.33;;;12.18;;
76591;SDS011;65481;47.600;19.682;2024-01-30T12:03:49;22.63;;;11.15;;
76591;SDS011;65481;47.600;19.682;2024-01-30T12:08:59;21.08;;;11.13;;
76591;SDS011;65481;47.600;19.682;2024-01-30T12:14:01;23.20;;;11.48;;
76591;SDS011;65481;47.600;19.682;2024-01-30T12:19:01;26.05;;;11.15;;
76591;SDS011;65481;47.600;19.682;2024-01-30T12:24:02;21.30;;;11.13;;
76591;SDS011;65481;47.600;19.682;2024-01-30T12:29:03;21.15;;;10.98;;
76591;SDS011;65481;47.600;19.682;2024-01-30T12:34:04;23.95;;;12.77;;
76591;SDS011;65481;47.600;19.682;2024-01-30T12:39:04;19.67;;;11.60;;
76591;SDS011;65481;47.600;19.682;2024-01-30T12:44:05;27.70;;;12.90;;
76591;SDS011;65481;47.600;19.682;2024-01-30T12:49:06;24.30;;;12.13;;
76591;SDS011;65481;47.600;19.682;2024-01-30T12:54:06;22.23;;;11.35;;
76591;SDS011;65481;47.600;19.682;2024-01-30T12:59:07;29.08;;;12.52;;
76591;SDS011;65481;47.600;19.682;2024-01-30T13:04:08;26.95;;;12.80;;
76591;SDS011;65481;47.600;19.682;2024-01-30T13:09:08;23.08;;;11.25;;
76591;SDS011;65481;47.600;19.682;2024-01-30T13:14:09;20.63;;;10.35;;
76591;SDS011;65481;47.600;19.682;2024-01-30T13:19:09;17.48;;;10.02;;
76591;SDS011;65481;47.600;19.682;2024-01-30T13:24:10;20.58;;;10.70;;
76591;SDS011;65481;47.600;19.682;2024-01-30T13:29:11;15.32;;;7.70;;
76591;SDS011;65481;47.600;19.682;2024-01-30T13:34:11;17.50;;;8.73;;
76591;SDS011;65481;47.600;19.682;2024-01-30T13:39:12;22.50;;;10.38;;
76591;SDS011;65481;47.600;19.682;2024-01-30T13:44:13;15.77;;;6.93;;
76591;SDS011;65481;47.600;19.682;2024-01-30T13:49:13;17.45;;;8.43;;
76591;SDS011;65481;47.600;19.682;2024-01-30T13:54:14;14.55;;;7.22;;
76591;SDS011;65481;47.600;19.682;2024-01-30T13:59:17;18.90;;;7.80;;
76591;SDS011;65481;47.600;19.682;2024-01-30T14:04:24;14.85;;;7.35;;
76591;SDS011;65481;47.600;19.682;2024-01-30T14:09:25;14.30;;;7.35;;
76591;SDS011;65481;47.600;19.682;2024-01-30T14:14:25;14.80;;;7.72;;
76591;SDS011;65481;47.600;19.682;2024-01-30T14:19:26;11.75;;;6.78;;
76591;SDS011;65481;47.600;19.682;2024-01-30T14:24:26;13.85;;;5.97;;
76591;SDS011;65481;47.600;19.682;2024-01-30T14:29:27;11.85;;;6.00;;
76591;SDS011;65481;47.600;19.682;2024-01-30T14:34:27;19.45;;;8.00;;
76591;SDS011;65481;47.600;19.682;2024-01-30T14:39:28;20.35;;;9.75;;
76591;SDS011;65481;47.600;19.682;2024-01-30T14:44:29;20.80;;;10.80;;
76591;SDS011;65481;47.600;19.682;2024-01-30T14:49:30;30.75;;;13.43;;
76591;SDS011;65481;47.600;19.682;2024-01-30T14:54:31;25.38;;;10.75;;
76591;SDS011;65481;47.600;19.682;2024-01-30T14:59:32;18.42;;;8.93;;
76591;SDS011;65481;47.600;19.682;2024-01-30T15:04:34;44.45;;;17.17;;
76591;SDS011;65481;47.600;19.682;2024-01-30T15:09:35;36.03;;;15.95;;
76591;SDS011;65481;47.600;19.682;2024-01-30T15:14:35;26.42;;;12.45;;
76591;SDS011;65481;47.600;19.682;2024-01-30T15:19:36;28.30;;;13.35;;
76591;SDS011;65481;47.600;19.682;2024-01-30T15:24:38;25.85;;;13.15;;
76591;SDS011;65481;47.600;19.682;2024-01-30T15:29:39;26.38;;;13.95;;
76591;SDS011;65481;47.600;19.682;2024-01-30T15:34:40;25.55;;;11.25;;
76591;SDS011;65481;47.600;19.682;2024-01-30T15:39:40;36.85;;;15.45;;
76591;SDS011;65481;47.600;19.682;2024-01-30T15:44:40;36.10;;;15.68;;
76591;SDS011;65481;47.600;19.682;2024-01-30T15:49:41;63.78;;;24.58;;
76591;SDS011;65481;47.600;19.682;2024-01-30T15:54:42;64.70;;;25.42;;
76591;SDS011;65481;47.600;19.682;2024-01-30T15:59:43;49.72;;;22.55;;
76591;SDS011;65481;47.600;19.682;2024-01-30T16:04:43;48.47;;;20.80;;
76591;SDS011;65481;47.600;19.682;2024-01-30T16:09:44;45.88;;;18.27;;
76591;SDS011;65481;47.600;19.682;2024-01-30T16:14:45;51.55;;;20.52;;
76591;SDS011;65481;47.600;19.682;2024-01-30T16:19:47;47.38;;;20.85;;
76591;SDS011;65481;47.600;19.682;2024-01-30T16:24:49;63.92;;;26.90;;
76591;SDS011;65481;47.600;19.682;2024-01-30T16:29:50;61.83;;;26.70;;
76591;SDS011;65481;47.600;19.682;2024-01-30T16:34:50;60.47;;;24.00;;
76591;SDS011;65481;47.600;19.682;2024-01-30T16:39:51;49.67;;;20.70;;
76591;SDS011;65481;47.600;19.682;2024-01-30T16:44:52;48.60;;;21.45;;
76591;SDS011;65481;47.600;19.682;2024-01-30T16:49:52;53.20;;;21.25;;
76591;SDS011;65481;47.600;19.682;2024-01-30T16:54:53;55.00;;;24.05;;
76591;SDS011;65481;47.600;19.682;2024-01-30T16:59:54;67.82;;;26.15;;
76591;SDS011;65481;47.600;19.682;2024-01-30T17:04:55;75.10;;;31.13;;
76591;SDS011;65481;47.600;19.682;2024-01-30T17:09:58;68.45;;;28.30;;
76591;SDS011;65481;47.600;19.682;2024-01-30T17:14:59;70.88;;;29.70;;
76591;SDS011;65481;47.600;19.682;2024-01-30T17:20:00;74.47;;;28.83;;
76591;SDS011;65481;47.600;19.682;2024-01-30T17:25:00;69.47;;;29.88;;
76591;SDS011;65481;47.600;19.682;2024-01-30T17:30:02;68.53;;;28.33;;
76591;SDS011;65481;47.600;19.682;2024-01-30T17:35:03;55.03;;;23.45;;
76591;SDS011;65481;47.600;19.682;2024-01-30T17:40:05;70.32;;;26.45;;
76591;SDS011;65481;47.600;19.682;2024-01-30T17:45:07;59.78;;;23.10;;
76591;SDS011;65481;47.600;19.682;2024-01-30T17:50:08;51.85;;;19.55;;
76591;SDS011;65481;47.600;19.682;2024-01-30T17:55:09;66.70;;;28.52;;
76591;SDS011;65481;47.600;19.682;2024-01-30T18:00:09;66.78;;;28.70;;
76591;SDS011;65481;47.600;19.682;2024-01-30T18:05:11;66.30;;;28.70;;
76591;SDS011;65481;47.600;19.682;2024-01-30T18:10:12;79.05;;;29.73;;
76591;SDS011;65481;47.600;19.682;2024-01-30T18:15:19;73.18;;;27.90;;
76591;SDS011;65481;47.600;19.682;2024-01-30T18:20:19;69.35;;;28.10;;
76591;SDS011;65481;47.600;19.682;2024-01-30T18:25:20;60.35;;;24.40;;
76591;SDS011;65481;47.600;19.682;2024-01-30T18:30:20;53.83;;;22.73;;
76591;SDS011;65481;47.600;19.682;2024-01-30T18:35:21;53.05;;;21.52;;
76591;SDS011;65481;47.600;19.682;2024-01-30T18:40:22;48.58;;;21.98;;
76591;SDS011;65481;47.600;19.682;2024-01-30T18:45:22;51.53;;;21.73;;
76591;SDS011;65481;47.600;19.682;2024-01-30T18:50:23;59.40;;;21.20;;
76591;SDS011;65481;47.600;19.682;2024-01-30T18:55:24;45.50;;;21.58;;
76591;SDS011;65481;47.600;19.682;2024-01-30T19:00:26;42.35;;;21.60;;
76591;SDS011;65481;47.600;19.682;2024-01-30T19:05:28;65.00;;;26.10;;
76591;SDS011;65481;47.600;19.682;2024-01-30T19:10:30;81.95;;;32.97;;
76591;SDS011;65481;47.600;19.682;2024-01-30T19:15:34;115.00;;;39.78;;
76591;SDS011;65481;47.600;19.682;2024-01-30T19:20:35;100.13;;;37.65;;
76591;SDS011;65481;47.600;19.682;2024-01-30T19:25:36;87.72;;;34.83;;
76591;SDS011;65481;47.600;19.682;2024-01-30T19:30:37;80.40;;;33.58;;
76591;SDS011;65481;47.600;19.682;2024-01-30T19:35:39;86.90;;;35.38;;
76591;SDS011;65481;47.600;19.682;2024-01-30T19:40:40;81.13;;;31.75;;
76591;SDS011;65481;47.600;19.682;2024-01-30T19:45:41;80.63;;;29.23;;
76591;SDS011;65481;47.600;19.682;2024-01-30T19:50:43;50.78;;;22.05;;
76591;SDS011;65481;47.600;19.682;2024-01-30T19:55:44;46.28;;;22.13;;
76591;SDS011;65481;47.600;19.682;2024-01-30T20:00:45;43.67;;;19.77;;
76591;SDS011;65481;47.600;19.682;2024-01-30T20:05:46;46.50;;;18.75;;
76591;SDS011;65481;47.600;19.682;2024-01-30T20:10:47;45.05;;;17.27;;
76591;SDS011;65481;47.600;19.682;2024-01-30T20:15:48;40.75;;;17.45;;
76591;SDS011;65481;47.600;19.682;2024-01-30T20:20:50;42.80;;;17.60;;
76591;SDS011;65481;47.600;19.682;2024-01-30T20:25:53;39.75;;;16.23;;
76591;SDS011;65481;47.600;19.682;2024-01-30T20:30:56;39.65;;;16.38;;
76591;SDS011;65481;47.600;19.682;2024-01-30T20:35:57;33.13;;;15.45;;
76591;SDS011;65481;47.600;19.682;2024-01-30T20:40:57;32.58;;;13.55;;
76591;SDS011;65481;47.600;19.682;2024-01-30T20:45:59;33.05;;;14.60;;
76591;SDS011;65481;47.600;19.682;2024-01-30T20:51:01;34.45;;;14.68;;
76591;SDS011;65481;47.600;19.682;2024-01-30T20:56:02;34.35;;;13.98;;
76591;SDS011;65481;47.600;19.682;2024-01-30T21:01:03;33.80;;;13.13;;
76591;SDS011;65481;47.600;19.682;2024-01-30T21:06:05;26.83;;;12.23;;
76591;SDS011;65481;47.600;19.682;2024-01-30T21:11:10;39.83;;;14.75;;
76591;SDS011;65481;47.600;19.682;2024-01-30T21:16:10;30.55;;;14.00;;
76591;SDS011;65481;47.600;19.682;2024-01-30T21:21:11;36.05;;;15.68;;
76591;SDS011;65481;47.600;19.682;2024-01-30T21:26:12;39.90;;;15.88;;
76591;SDS011;65481;47.600;19.682;2024-01-30T21:31:14;41.67;;;15.95;;
76591;SDS011;65481;47.600;19.682;2024-01-30T21:36:16;44.40;;;17.58;;
76591;SDS011;65481;47.600;19.682;2024-01-30T21:41:17;49.28;;;19.85;;
76591;SDS011;65481;47.600;19.682;2024-01-30T21:46:26;50.78;;;18.85;;
76591;SDS011;65481;47.600;19.682;2024-01-30T21:51:27;32.10;;;13.98;;
76591;SDS011;65481;47.600;19.682;2024-01-30T21:56:28;36.15;;;16.02;;
76591;SDS011;65481;47.600;19.682;2024-01-30T22:01:30;34.22;;;14.65;;
76591;SDS011;65481;47.600;19.682;2024-01-30T22:06:30;40.13;;;14.20;;
76591;SDS011;65481;47.600;19.682;2024-01-30T22:11:31;31.13;;;14.30;;
76591;SDS011;65481;47.600;19.682;2024-01-30T22:16:31;30.63;;;14.10;;
76591;SDS011;65481;47.600;19.682;2024-01-30T22:21:32;29.98;;;12.75;;
76591;SDS011;65481;47.600;19.682;2024-01-30T22:26:42;33.28;;;13.90;;
76591;SDS011;65481;47.600;19.682;2024-01-30T22:31:43;38.80;;;15.00;;
76591;SDS011;65481;47.600;19.682;2024-01-30T22:36:43;38.55;;;14.88;;
76591;SDS011;65481;47.600;19.682;2024-01-30T22:41:44;33.45;;;14.20;;
76591;SDS011;65481;47.600;19.682;2024-01-30T22:46:44;33.42;;;14.10;;
76591;SDS011;65481;47.600;19.682;2024-01-30T22:51:45;29.95;;;14.15;;
76591;SDS011;65481;47.600;19.682;2024-01-30T22:56:49;35.05;;;14.13;;
76591;SDS011;65481;47.600;19.682;2024-01-30T23:01:49;35.15;;;15.15;;
76591;SDS011;65481;47.600;19.682;2024-01-30T23:06:50;32.17;;;14.90;;
76591;SDS011;65481;47.600;19.682;2024-01-30T23:11:51;34.25;;;12.27;;
76591;SDS011;65481;47.600;19.682;2024-01-30T23:16:51;39.35;;;15.07;;
76591;SDS011;65481;47.600;19.682;2024-01-30T23:21:52;34.80;;;15.68;;
76591;SDS011;65481;47.600;19.682;2024-01-30T23:26:53;35.85;;;15.38;;
76591;SDS011;65481;47.600;19.682;2024-01-30T23:31:53;42.05;;;17.58;;
76591;SDS011;65481;47.600;19.682;2024-01-30T23:36:54;38.78;;;15.73;;
76591;SDS011;65481;47.600;19.682;2024-01-30T23:41:54;41.67;;;16.15;;
76591;SDS011;65481;47.600;19.682;2024-01-30T23:46:55;39.78;;;16.20;;
76591;SDS011;65481;47.600;19.682;2024-01-30T23:51:55;49.33;;;18.80;;
76591;SDS011;65481;47.600;19.682;2024-01-30T23:56:56;50.05;;;21.40;;
